createdAt,value
2023-01-15T00:02:08.102Z,99.42
2023-01-15T00:04:36.001Z,99.30
2023-01-15T00:07:04.497Z,99.68
2023-01-15T00:09:32.043Z,99.52
2023-01-15T00:11:59.615Z,99.62
2023-01-15T00:14:27.184Z,99.91
2023-01-15T00:16:54.568Z,99.90
2023-01-15T00:19:22.198Z,99.75
2023-01-15T00:21:49.667Z,99.35
2023-01-15T00:24:35.650Z,99.04
2023-01-15T00:27:21.682Z,99.23
2023-01-15T00:29:49.166Z,98.60
2023-01-15T00:32:16.664Z,98.09
2023-01-15T00:34:44.101Z,97.79
2023-01-15T00:37:11.602Z,97.22
2023-01-15T00:39:39.362Z,96.33
2023-01-15T00:42:06.846Z,96.77
2023-01-15T00:44:34.395Z,96.71
2023-01-15T00:47:01.954Z,96.82
2023-01-15T00:49:30.261Z,97.06
2023-01-15T00:51:57.798Z,97.40
2023-01-15T00:54:25.236Z,96.96
2023-01-15T00:56:53.951Z,97.29
2023-01-15T00:59:21.576Z,97.55
2023-01-15T01:01:49.199Z,97.78
2023-01-15T01:04:17.040Z,97.88
2023-01-15T01:06:44.654Z,98.41
2023-01-15T01:09:14.718Z,98.61
2023-01-15T01:11:43.008Z,98.69
2023-01-15T01:14:12.519Z,98.79
2023-01-15T01:16:42.255Z,99.28
2023-01-15T01:19:17.544Z,99.00
2023-01-15T01:21:48.165Z,99.04
2023-01-15T01:24:22.693Z,98.70
2023-01-15T01:26:54.118Z,98.33
2023-01-15T01:29:23.842Z,98.33
2023-01-15T01:31:52.087Z,98.01
2023-01-15T01:34:19.676Z,97.51
2023-01-15T01:36:47.195Z,97.12
2023-01-15T01:39:18.402Z,96.98
2023-01-15T01:41:47.731Z,97.62
2023-01-15T01:44:34.760Z,97.17
2023-01-15T01:47:09.171Z,97.20
2023-01-15T01:49:40.278Z,97.03
2023-01-15T01:52:20.508Z,96.99
2023-01-15T01:54:50.077Z,96.70
2023-01-15T01:57:20.923Z,97.08
2023-01-15T01:59:49.860Z,96.51
2023-01-15T02:02:22.932Z,97.19
2023-01-15T02:04:51.852Z,96.87
2023-01-15T02:07:19.379Z,96.73
2023-01-15T02:09:46.850Z,96.47
2023-01-15T02:12:31.282Z,96.33
2023-01-15T02:15:13.703Z,96.53
2023-01-15T02:17:56.523Z,96.11
2023-01-15T02:20:41.471Z,96.11
2023-01-15T02:23:50.570Z,95.47
2023-01-15T02:26:59.615Z,95.30
2023-01-15T02:29:47.296Z,95.76
2023-01-15T02:32:50.777Z,95.05
2023-01-15T02:35:34.024Z,95.41
2023-01-15T02:38:11.385Z,95.28
2023-01-15T02:40:42.848Z,94.68
2023-01-15T02:43:14.230Z,94.76
2023-01-15T02:45:49.358Z,94.64
2023-01-15T02:48:25.134Z,94.75
2023-01-15T02:51:02.162Z,94.91
2023-01-15T02:53:31.296Z,94.90
2023-01-15T02:56:13.504Z,95.24
2023-01-15T02:58:53.182Z,95.19
2023-01-15T03:01:33.974Z,95.25
2023-01-15T03:04:19.859Z,95.27
2023-01-15T03:07:01.281Z,95.71
2023-01-15T03:09:32.541Z,95.42
2023-01-15T03:12:11.863Z,95.26
2023-01-15T03:15:03.457Z,95.16
2023-01-15T03:17:53.355Z,95.26
2023-01-15T03:20:26.600Z,95.14
2023-01-15T03:23:03.322Z,94.84
2023-01-15T03:25:38.191Z,94.41
2023-01-15T03:28:10.202Z,94.40
2023-01-15T03:30:38.386Z,94.45
2023-01-15T03:33:11.536Z,94.43
2023-01-15T03:35:58.835Z,94.42
2023-01-15T03:38:47.348Z,94.27
2023-01-15T03:42:10.666Z,94.11
2023-01-15T03:45:17.834Z,94.03
2023-01-15T03:47:53.099Z,94.07
2023-01-15T03:50:43.076Z,93.96
2023-01-15T03:53:20.641Z,94.05
2023-01-15T03:56:06.160Z,93.87
2023-01-15T03:58:47.411Z,93.83
2023-01-15T04:01:26.843Z,93.28
2023-01-15T04:03:58.457Z,93.78
2023-01-15T04:06:32.457Z,93.53
2023-01-15T04:09:00.559Z,93.67
2023-01-15T04:11:29.728Z,93.26
2023-01-15T04:14:04.395Z,93.33
2023-01-15T04:16:41.658Z,93.07
2023-01-15T04:19:09.261Z,93.18
2023-01-15T04:21:39.911Z,93.73
2023-01-15T04:24:07.882Z,93.49
2023-01-15T04:26:35.408Z,93.40
2023-01-15T04:29:03.188Z,93.34
2023-01-15T04:31:33.484Z,93.09
2023-01-15T04:34:00.930Z,93.11
2023-01-15T04:36:28.553Z,92.41
2023-01-15T04:38:57.637Z,92.46
2023-01-15T04:41:43.755Z,92.71
2023-01-15T04:44:11.227Z,92.30
2023-01-15T04:46:47.891Z,92.22
2023-01-15T04:49:18.406Z,92.42
2023-01-15T04:51:47.079Z,92.21
2023-01-15T04:54:16.691Z,92.23
2023-01-15T04:56:52.153Z,91.80
2023-01-15T04:59:26.314Z,91.85
2023-01-15T05:02:04.038Z,92.27
2023-01-15T05:04:35.018Z,92.02
2023-01-15T05:07:05.201Z,91.52
2023-01-15T05:09:33.097Z,91.63
2023-01-15T05:12:00.584Z,91.56
2023-01-15T05:14:28.442Z,91.95
2023-01-15T05:16:56.007Z,91.84
2023-01-15T05:19:23.423Z,91.91
2023-01-15T05:21:51.694Z,91.62
2023-01-15T05:24:19.456Z,91.96
2023-01-15T05:26:47.220Z,91.54
2023-01-15T05:29:15.742Z,91.78
2023-01-15T05:31:45.194Z,91.47
2023-01-15T05:34:13.309Z,91.67
2023-01-15T05:36:41.399Z,91.54
2023-01-15T05:39:10.068Z,91.52
2023-01-15T05:41:50.108Z,91.76
2023-01-15T05:44:27.589Z,91.59
2023-01-15T05:47:00.336Z,91.45
2023-01-15T05:49:31.450Z,91.79
2023-01-15T05:52:01.310Z,91.15
2023-01-15T05:54:35.968Z,91.55
2023-01-15T05:57:03.981Z,91.48
2023-01-15T05:59:33.148Z,91.95
2023-01-15T06:02:00.915Z,91.68
2023-01-15T06:04:28.356Z,91.47
2023-01-15T06:06:57.429Z,91.54
2023-01-15T06:09:27.984Z,90.94
2023-01-15T06:11:56.558Z,91.25
2023-01-15T06:14:24.561Z,90.92
2023-01-15T06:16:52.125Z,91.37
2023-01-15T06:19:20.377Z,90.97
2023-01-15T06:21:48.956Z,91.42
2023-01-15T06:24:17.885Z,91.37
2023-01-15T06:26:45.539Z,91.68
2023-01-15T06:29:17.482Z,91.76
2023-01-15T06:31:44.989Z,92.54
2023-01-15T06:34:12.477Z,92.54
2023-01-15T06:36:40.159Z,93.18
2023-01-15T06:39:07.605Z,93.61
2023-01-15T06:41:53.711Z,94.32
2023-01-15T06:44:39.857Z,94.63
2023-01-15T06:47:23.621Z,95.44
2023-01-15T06:49:58.016Z,95.36
2023-01-15T06:52:28.436Z,95.57
2023-01-15T06:54:56.335Z,95.49
2023-01-15T06:57:24.001Z,95.49
2023-01-15T06:59:51.698Z,95.25
2023-01-15T07:02:19.847Z,95.31
2023-01-15T07:04:49.158Z,94.99
2023-01-15T07:07:19.328Z,95.07
2023-01-15T07:09:46.913Z,94.88
2023-01-15T07:12:14.647Z,94.71
2023-01-15T07:14:42.177Z,94.80
2023-01-15T07:17:10.335Z,94.84
2023-01-15T07:19:44.298Z,94.52
2023-01-15T07:22:13.364Z,94.12
2023-01-15T07:24:40.849Z,94.52
2023-01-15T07:27:08.364Z,94.01
2023-01-15T07:29:35.828Z,93.70
2023-01-15T07:32:03.539Z,93.74
2023-01-15T07:34:31.121Z,93.68
2023-01-15T07:36:58.589Z,93.51
2023-01-15T07:39:26.026Z,93.58
2023-01-15T07:42:12.192Z,93.78
2023-01-15T07:44:58.365Z,93.97
2023-01-15T07:47:46.093Z,93.84
2023-01-15T07:50:19.123Z,93.58
2023-01-15T07:52:47.094Z,93.97
2023-01-15T07:55:15.165Z,93.85
2023-01-15T07:57:43.315Z,93.79
2023-01-15T08:00:16.648Z,92.56
2023-01-15T08:02:46.021Z,92.37
2023-01-15T08:05:13.567Z,92.52
2023-01-15T08:07:42.572Z,92.24
2023-01-15T08:10:13.433Z,92.29
2023-01-15T08:12:59.935Z,91.44
2023-01-15T08:15:33.400Z,91.60
2023-01-15T08:18:00.982Z,91.16
2023-01-15T08:20:28.452Z,91.08
2023-01-15T08:22:56.120Z,91.00
2023-01-15T08:25:25.170Z,90.34
2023-01-15T08:27:54.884Z,90.79
2023-01-15T08:30:25.723Z,90.15
2023-01-15T08:32:53.179Z,90.08
2023-01-15T08:35:20.749Z,90.06
2023-01-15T08:37:48.278Z,89.64
2023-01-15T08:40:15.784Z,89.56
2023-01-15T08:42:43.321Z,89.50
2023-01-15T08:45:11.609Z,89.26
2023-01-15T08:47:39.125Z,89.45
2023-01-15T08:50:08.707Z,89.38
2023-01-15T08:52:38.324Z,89.12
2023-01-15T08:55:06.904Z,89.52
2023-01-15T08:57:34.589Z,89.59
2023-01-15T09:00:02.118Z,89.09
2023-01-15T09:02:29.879Z,89.17
2023-01-15T09:04:57.470Z,88.78
2023-01-15T09:07:25.049Z,89.56
2023-01-15T09:09:52.577Z,88.96
2023-01-15T09:12:20.164Z,89.15
2023-01-15T09:15:08.497Z,89.01
2023-01-15T09:17:42.116Z,89.54
2023-01-15T09:20:13.301Z,88.83
2023-01-15T09:22:40.945Z,89.33
2023-01-15T09:25:08.704Z,89.54
2023-01-15T09:27:37.782Z,88.92
2023-01-15T09:30:07.200Z,88.70
2023-01-15T09:32:34.679Z,89.11
2023-01-15T09:35:02.569Z,89.20
2023-01-15T09:37:30.039Z,89.06
2023-01-15T09:39:57.508Z,88.97
2023-01-15T09:42:50.026Z,88.84
2023-01-15T09:45:55.330Z,89.04
2023-01-15T09:48:40.565Z,88.33
2023-01-15T09:51:42.508Z,89.01
2023-01-15T09:54:49.519Z,88.64
2023-01-15T09:57:26.871Z,88.18
2023-01-15T10:00:02.531Z,87.70
2023-01-15T10:03:10.411Z,87.79
2023-01-15T10:05:55.596Z,87.69
2023-01-15T10:08:43.439Z,87.51
2023-01-15T10:11:20.080Z,87.63
2023-01-15T10:14:10.475Z,87.26
2023-01-15T10:16:38.057Z,87.42
2023-01-15T10:19:05.759Z,87.13
2023-01-15T10:21:51.764Z,87.44
2023-01-15T10:24:44.616Z,86.85
2023-01-15T10:27:44.975Z,86.22
2023-01-15T10:30:30.853Z,86.37
2023-01-15T10:33:19.087Z,85.75
2023-01-15T10:36:00.512Z,85.39
2023-01-15T10:38:34.984Z,84.85
2023-01-15T10:41:12.511Z,84.71
2023-01-15T10:43:48.685Z,83.91
2023-01-15T10:46:40.448Z,84.36
2023-01-15T10:49:18.848Z,83.60
2023-01-15T10:51:55.140Z,83.62
2023-01-15T10:54:48.881Z,83.56
2023-01-15T10:57:36.662Z,82.94
2023-01-15T11:00:05.356Z,83.44
2023-01-15T11:02:43.381Z,83.50
2023-01-15T11:05:20.955Z,82.83
2023-01-15T11:08:24.697Z,82.54
2023-01-15T11:10:41.769Z,82.84
2023-01-15T11:13:33.917Z,82.66
2023-01-15T11:16:20.531Z,82.46
2023-01-15T11:19:07.237Z,82.39
2023-01-15T11:21:43.045Z,82.62
2023-01-15T11:24:17.804Z,82.12
2023-01-15T11:26:54.846Z,82.15
2023-01-15T11:29:36.956Z,81.84
2023-01-15T11:32:04.747Z,81.66
2023-01-15T11:34:32.260Z,81.70
2023-01-15T11:37:05.800Z,81.44
2023-01-15T11:39:33.559Z,81.38
2023-01-15T11:42:24.119Z,81.46
2023-01-15T11:45:16.823Z,81.00
2023-01-15T11:48:13.804Z,80.64
2023-01-15T11:51:22.019Z,81.35
2023-01-15T11:54:02.047Z,81.73
2023-01-15T11:56:33.420Z,82.36
2023-01-15T11:59:13.901Z,82.07
2023-01-15T12:02:00.211Z,81.50
2023-01-15T12:04:56.597Z,81.39
2023-01-15T12:07:26.664Z,82.08
2023-01-15T12:10:39.680Z,81.97
2023-01-15T12:13:58.786Z,82.41
2023-01-15T12:16:47.524Z,82.61
2023-01-15T12:19:37.523Z,82.65
2023-01-15T12:22:48.909Z,83.80
2023-01-15T12:25:48.038Z,83.94
2023-01-15T12:28:44.926Z,84.73
2023-01-15T12:31:25.762Z,84.87
2023-01-15T12:34:24.309Z,84.91
2023-01-15T12:37:02.336Z,85.41
2023-01-15T12:39:31.221Z,85.39
2023-01-15T12:42:25.679Z,85.49
2023-01-15T12:45:06.098Z,85.20
2023-01-15T12:48:07.055Z,84.83
2023-01-15T12:50:54.058Z,84.74
2023-01-15T12:54:01.451Z,84.35
2023-01-15T12:57:14.337Z,84.89
2023-01-15T12:59:54.263Z,85.65
2023-01-15T13:02:32.249Z,86.27
2023-01-15T13:05:25.958Z,85.84
2023-01-15T13:08:12.334Z,85.97
2023-01-15T13:10:42.126Z,85.63
2023-01-15T13:13:37.123Z,85.58
2023-01-15T13:16:30.641Z,85.67
2023-01-15T13:19:30.152Z,86.01
2023-01-15T13:22:07.163Z,86.11
2023-01-15T13:25:06.022Z,85.68
2023-01-15T13:28:07.412Z,85.95
2023-01-15T13:31:08.832Z,85.43
2023-01-15T13:33:46.866Z,85.39
2023-01-15T13:36:46.298Z,85.68
2023-01-15T13:39:23.447Z,85.56
2023-01-15T13:42:12.933Z,85.21
2023-01-15T13:44:51.157Z,85.16
2023-01-15T13:47:30.860Z,85.30
2023-01-15T13:50:12.053Z,84.50
2023-01-15T13:52:40.098Z,84.78
2023-01-15T13:55:26.170Z,84.30
2023-01-15T13:57:53.784Z,84.85
2023-01-15T14:00:28.212Z,85.23
2023-01-15T14:03:02.788Z,85.92
2023-01-15T14:05:36.180Z,86.04
2023-01-15T14:08:16.735Z,86.09
2023-01-15T14:10:44.720Z,86.13
2023-01-15T14:13:46.682Z,85.61
2023-01-15T14:16:43.354Z,85.92
2023-01-15T14:19:51.758Z,86.05
2023-01-15T14:22:59.548Z,85.34
2023-01-15T14:26:01.183Z,85.40
2023-01-15T14:28:46.832Z,84.96
2023-01-15T14:31:28.815Z,84.97
2023-01-15T14:34:30.172Z,85.06
2023-01-15T14:37:12.945Z,84.11
2023-01-15T14:39:52.119Z,83.46
2023-01-15T14:42:41.256Z,83.21
2023-01-15T14:45:11.822Z,83.36
2023-01-15T14:47:50.823Z,83.34
2023-01-15T14:51:05.971Z,83.50
2023-01-15T14:53:52.099Z,83.50
2023-01-15T14:56:36.294Z,83.47
2023-01-15T14:59:45.500Z,83.42
2023-01-15T15:02:27.270Z,82.84
2023-01-15T15:04:57.009Z,83.24
2023-01-15T15:07:31.169Z,82.80
2023-01-15T15:10:19.826Z,82.78
2023-01-15T15:13:19.482Z,82.79
2023-01-15T15:16:13.243Z,82.67
2023-01-15T15:19:02.571Z,82.31
2023-01-15T15:21:41.761Z,83.02
2023-01-15T15:24:21.141Z,83.37
2023-01-15T15:26:48.881Z,82.99
2023-01-15T15:29:20.243Z,83.25
2023-01-15T15:31:57.784Z,83.62
2023-01-15T15:34:40.571Z,82.91
2023-01-15T15:37:26.903Z,83.06
2023-01-15T15:40:19.354Z,83.35
2023-01-15T15:43:28.388Z,83.29
2023-01-15T15:46:16.693Z,83.50
2023-01-15T15:48:53.376Z,84.00
2023-01-15T15:51:34.728Z,83.79
2023-01-15T15:54:27.865Z,84.17
2023-01-15T15:57:05.046Z,84.28
2023-01-15T15:59:36.655Z,84.31
2023-01-15T16:02:37.979Z,84.68
2023-01-15T16:05:26.507Z,84.59
2023-01-15T16:07:55.589Z,85.27
2023-01-15T16:10:35.041Z,85.26
2023-01-15T16:13:08.990Z,85.52
2023-01-15T16:15:41.888Z,85.98
2023-01-15T16:18:26.381Z,85.65
2023-01-15T16:20:55.092Z,86.18
2023-01-15T16:23:29.185Z,86.17
2023-01-15T16:26:05.086Z,86.61
2023-01-15T16:28:43.882Z,86.74
2023-01-15T16:31:20.093Z,86.50
2023-01-15T16:33:48.292Z,86.78
2023-01-15T16:36:15.945Z,86.53
2023-01-15T16:38:49.929Z,86.84
2023-01-15T16:41:29.903Z,86.37
2023-01-15T16:44:02.356Z,87.10
2023-01-15T16:46:53.090Z,87.13
2023-01-15T16:49:23.614Z,87.29
2023-01-15T16:51:57.374Z,87.28
2023-01-15T16:54:30.732Z,87.43
2023-01-15T16:57:22.907Z,87.65
2023-01-15T16:59:59.591Z,87.60
2023-01-15T17:02:41.842Z,87.70
2023-01-15T17:05:25.332Z,88.25
2023-01-15T17:07:54.810Z,88.22
2023-01-15T17:10:28.616Z,88.29
2023-01-15T17:12:56.330Z,88.64
2023-01-15T17:15:26.779Z,88.33
2023-01-15T17:17:55.943Z,88.50
2023-01-15T17:20:27.969Z,88.22
2023-01-15T17:22:56.402Z,88.25
2023-01-15T17:25:27.690Z,88.10
2023-01-15T17:27:56.039Z,88.01
2023-01-15T17:30:31.121Z,88.47
2023-01-15T17:33:04.676Z,88.53
2023-01-15T17:35:38.124Z,88.12
2023-01-15T17:38:07.355Z,88.37
2023-01-15T17:40:39.743Z,88.64
2023-01-15T17:43:14.233Z,88.31
2023-01-15T17:45:42.794Z,88.59
2023-01-15T17:48:10.519Z,88.80
2023-01-15T17:50:40.979Z,88.50
2023-01-15T17:53:08.575Z,88.85
2023-01-15T17:55:56.509Z,88.97
2023-01-15T17:58:42.783Z,88.99
2023-01-15T18:01:38.666Z,89.39
2023-01-15T18:04:39.470Z,88.95
2023-01-15T18:07:07.849Z,88.81
2023-01-15T18:09:39.768Z,89.23
2023-01-15T18:12:08.338Z,88.82
2023-01-15T18:14:42.824Z,89.05
2023-01-15T18:17:11.534Z,88.79
2023-01-15T18:19:39.075Z,89.21
2023-01-15T18:22:06.655Z,88.91
2023-01-15T18:24:34.402Z,88.94
2023-01-15T18:27:01.981Z,89.54
2023-01-15T18:29:31.925Z,89.78
2023-01-15T18:32:02.266Z,89.88
2023-01-15T18:34:32.089Z,89.79
2023-01-15T18:36:59.585Z,89.29
2023-01-15T18:39:30.269Z,89.87
2023-01-15T18:41:58.114Z,89.63
2023-01-15T18:44:48.772Z,89.90
2023-01-15T18:47:17.617Z,89.51
2023-01-15T18:49:54.416Z,89.56
2023-01-15T18:52:43.448Z,90.06
2023-01-15T18:55:11.007Z,89.81
2023-01-15T18:57:41.172Z,90.14
2023-01-15T19:00:12.521Z,90.06
2023-01-15T19:02:42.795Z,89.71
2023-01-15T19:05:15.387Z,90.11
2023-01-15T19:07:44.811Z,90.62
2023-01-15T19:10:14.576Z,90.36
2023-01-15T19:12:43.742Z,90.23
2023-01-15T19:15:34.814Z,90.86
2023-01-15T19:18:28.271Z,91.00
2023-01-15T19:21:00.507Z,90.97
2023-01-15T19:23:30.299Z,91.24
2023-01-15T19:25:58.054Z,90.68
2023-01-15T19:28:25.988Z,90.96
2023-01-15T19:31:11.944Z,91.35
2023-01-15T19:33:39.512Z,91.16
2023-01-15T19:36:08.364Z,91.17
2023-01-15T19:38:42.227Z,91.67
2023-01-15T19:41:30.453Z,91.62
2023-01-15T19:44:16.516Z,91.91
2023-01-15T19:47:03.765Z,92.29
2023-01-15T19:49:54.918Z,91.87
2023-01-15T19:52:34.601Z,91.77
2023-01-15T19:55:10.574Z,91.86
2023-01-15T19:58:12.570Z,92.07
2023-01-15T20:00:44.156Z,92.11
2023-01-15T20:03:15.274Z,92.37
2023-01-15T20:05:47.040Z,92.07
2023-01-15T20:08:18.105Z,92.23
2023-01-15T20:10:49.296Z,92.76
2023-01-15T20:13:39.988Z,92.46
2023-01-15T20:16:14.866Z,92.94
2023-01-15T20:18:45.876Z,92.64
2023-01-15T20:21:16.306Z,92.81
2023-01-15T20:23:49.382Z,92.64
2023-01-15T20:26:18.191Z,92.99
2023-01-15T20:28:47.612Z,93.19
2023-01-15T20:31:22.737Z,92.63
2023-01-15T20:33:56.259Z,93.11
2023-01-15T20:36:23.828Z,93.24
2023-01-15T20:38:51.234Z,93.27
2023-01-15T20:41:44.816Z,93.18
2023-01-15T20:44:30.736Z,92.97
2023-01-15T20:47:00.550Z,93.34
2023-01-15T20:49:29.999Z,93.29
2023-01-15T20:51:58.094Z,93.57
2023-01-15T20:54:26.514Z,93.55
2023-01-15T20:56:56.866Z,93.79
2023-01-15T20:59:26.727Z,93.82
2023-01-15T21:01:55.228Z,93.68
2023-01-15T21:04:25.333Z,93.87
2023-01-15T21:06:55.088Z,94.21
2023-01-15T21:09:22.614Z,93.98
2023-01-15T21:11:50.363Z,93.81
2023-01-15T21:14:17.902Z,93.83
2023-01-15T21:16:45.833Z,93.70
2023-01-15T21:19:13.361Z,94.08
2023-01-15T21:21:40.963Z,94.59
2023-01-15T21:24:08.608Z,94.53
2023-01-15T21:26:36.816Z,94.16
2023-01-15T21:29:04.293Z,94.10
2023-01-15T21:31:31.817Z,93.91
2023-01-15T21:33:59.392Z,94.20
2023-01-15T21:36:26.899Z,94.03
2023-01-15T21:38:54.897Z,94.28
2023-01-15T21:41:42.145Z,93.97
2023-01-15T21:44:32.280Z,94.16
2023-01-15T21:47:03.477Z,94.05
2023-01-15T21:49:33.274Z,94.21
2023-01-15T21:52:04.266Z,93.83
2023-01-15T21:54:32.591Z,94.10
2023-01-15T21:57:00.736Z,93.45
2023-01-15T21:59:28.217Z,94.40
2023-01-15T22:01:57.847Z,94.38
2023-01-15T22:04:28.232Z,94.34
2023-01-15T22:06:56.788Z,94.27
2023-01-15T22:09:24.423Z,94.17
2023-01-15T22:11:52.750Z,93.98
2023-01-15T22:14:29.214Z,94.06
2023-01-15T22:17:00.041Z,93.80
2023-01-15T22:19:30.210Z,93.82
2023-01-15T22:22:10.698Z,93.85
2023-01-15T22:24:40.147Z,93.61
2023-01-15T22:27:14.254Z,93.74
2023-01-15T22:29:43.285Z,93.83
2023-01-15T22:32:14.367Z,93.48
2023-01-15T22:34:43.088Z,93.88
2023-01-15T22:37:14.045Z,93.67
2023-01-15T22:39:41.528Z,93.20
2023-01-15T22:42:24.570Z,93.72
2023-01-15T22:44:52.219Z,93.92
2023-01-15T22:47:20.646Z,94.06
2023-01-15T22:49:48.229Z,94.58
2023-01-15T22:52:15.880Z,94.27
2023-01-15T22:54:45.215Z,94.45
2023-01-15T22:57:13.622Z,94.84
2023-01-15T22:59:41.131Z,94.30
2023-01-15T23:02:08.854Z,94.80
2023-01-15T23:04:36.499Z,95.05
2023-01-15T23:07:04.023Z,94.92
2023-01-15T23:09:31.571Z,94.71
2023-01-15T23:11:59.270Z,94.57
2023-01-15T23:14:26.988Z,95.13
2023-01-15T23:16:54.408Z,94.90
2023-01-15T23:19:22.033Z,94.86
2023-01-15T23:21:49.545Z,94.92
2023-01-15T23:24:17.005Z,94.92
2023-01-15T23:26:47.547Z,95.14
2023-01-15T23:29:15.154Z,95.90
2023-01-15T23:31:42.800Z,95.94
2023-01-15T23:34:11.390Z,96.04
2023-01-15T23:36:39.425Z,96.09
2023-01-15T23:39:07.910Z,97.21
2023-01-15T23:41:53.947Z,96.90
2023-01-15T23:44:40.612Z,97.74
2023-01-15T23:47:08.386Z,97.34
2023-01-15T23:49:36.350Z,98.32
2023-01-15T23:52:04.584Z,98.59
2023-01-15T23:54:35.279Z,98.87
2023-01-15T23:57:02.893Z,98.25
2023-01-15T23:59:30.534Z,98.61
